Time;durP1;ratioP1;P1;durP2;ratioP2;P2;SDS_P1;SDS_P2;PMS_P1;PMS_P2;Temp;Humidity;BMP_temperature;BMP_pressure;BME280_temperature;BME280_humidity;BME280_pressure;Samples;Min_cycle;Max_cycle;Signal;HPM_P1;HPM_P2
2022/06/20 00:00:27;;;;;;;6.13;1.83;;;14.70;99.90;;;;;;5061793;28;20047;-76
2022/06/20 00:02:56;;;;;;;12.68;1.98;;;14.70;99.90;;;;;;5091779;28;20499;-77
2022/06/20 00:05:25;;;;;;;8.95;2.00;;;14.60;99.90;;;;;;5075239;28;20040;-78
2022/06/20 00:07:51;;;;;;;7.47;2.03;;;14.60;99.90;;;;;;5091670;28;20066;-76
2022/06/20 00:10:18;;;;;;;;;;;14.60;99.90;;;;;;5075389;28;20437;-77
2022/06/20 00:12:44;;;;;;;6.43;2.55;;;14.50;99.90;;;;;;5074597;28;19923;-76
2022/06/20 00:15:35;;;;;;;9.10;2.05;;;14.50;99.90;;;;;;5058376;28;20028;-78
2022/06/20 00:18:05;;;;;;;9.10;2.17;;;14.40;99.90;;;;;;5089007;28;20036;-77
2022/06/20 00:20:31;;;;;;;6.45;1.88;;;14.40;99.90;;;;;;5091420;28;20048;-78
2022/06/20 00:22:57;;;;;;;5.90;1.80;;;14.40;99.90;;;;;;5091236;28;20046;-77
2022/06/20 00:25:23;;;;;;;7.43;1.80;;;14.40;99.90;;;;;;5094514;28;20068;-76
2022/06/20 00:27:51;;;;;;;7.07;1.80;;;14.40;99.90;;;;;;5083883;28;20040;-77
2022/06/20 00:30:18;;;;;;;7.40;2.30;;;14.30;99.90;;;;;;5095305;28;20116;-77
2022/06/20 00:32:44;;;;;;;8.07;1.83;;;14.40;99.90;;;;;;5094429;28;20119;-76
2022/06/20 00:35:10;;;;;;;5.72;1.92;;;14.40;99.90;;;;;;5095006;28;20518;-77
2022/06/20 00:37:36;;;;;;;7.53;2.38;;;14.30;99.90;;;;;;5077963;28;20035;-79
2022/06/20 00:40:16;;;;;;;5.85;2.08;;;14.30;99.90;;;;;;5077378;28;20044;-76
2022/06/20 00:42:41;;;;;;;7.15;2.00;;;14.30;99.90;;;;;;5094600;28;20040;-77
2022/06/20 00:45:10;;;;;;;6.90;2.20;;;14.30;99.90;;;;;;5077628;28;20146;-77
2022/06/20 00:47:36;;;;;;;8.82;2.15;;;14.30;99.90;;;;;;5093636;28;20310;-77
2022/06/20 00:50:24;;;;;;;5.70;2.00;;;14.30;99.90;;;;;;5094311;28;20035;-78
2022/06/20 00:53:34;;;;;;;9.18;2.10;;;14.20;99.90;;;;;;5076430;28;20027;-77
2022/06/20 00:56:10;;;;;;;6.13;1.90;;;14.30;99.90;;;;;;5126624;27;20551;-77
2022/06/20 00:58:51;;;;;;;4.45;1.80;;;14.30;99.90;;;;;;5091880;28;20043;-78
2022/06/20 01:01:25;;;;;;;6.22;2.13;;;14.30;99.90;;;;;;5094247;28;20055;-77
2022/06/20 01:03:55;;;;;;;5.82;2.13;;;14.30;99.90;;;;;;5077140;28;20062;-77
2022/06/20 01:06:30;;;;;;;6.47;1.80;;;14.10;99.90;;;;;;5109578;28;20044;-77
2022/06/20 01:09:06;;;;;;;5.25;2.03;;;14.10;99.90;;;;;;5093752;28;20042;-77
2022/06/20 01:11:46;;;;;;;7.40;1.88;;;14.00;99.90;;;;;;5093992;28;20134;-77
2022/06/20 01:14:34;;;;;;;8.57;2.10;;;13.90;99.90;;;;;;5093238;28;20039;-77
2022/06/20 01:17:04;;;;;;;8.00;1.98;;;13.90;99.90;;;;;;5092356;28;20557;-78
2022/06/20 01:19:48;;;;;;;7.65;2.30;;;13.80;99.90;;;;;;5094044;28;20039;-77
2022/06/20 01:22:27;;;;;;;7.75;1.58;;;13.70;99.90;;;;;;5091387;28;20047;-77
2022/06/20 01:25:25;;;;;;;7.20;1.45;;;13.70;99.90;;;;;;5077066;28;20449;-76
2022/06/20 01:27:52;;;;;;;6.20;2.13;;;13.60;99.90;;;;;;5091144;28;20055;-77
2022/06/20 01:30:20;;;;;;;7.40;1.80;;;13.60;99.90;;;;;;5093469;28;20039;-76
2022/06/20 01:32:46;;;;;;;6.25;2.00;;;13.50;99.90;;;;;;5077198;28;20040;-78
2022/06/20 01:37:23;;;;;;;7.40;1.67;;;13.50;99.90;;;;;;5093430;28;20032;-78
2022/06/20 01:38:04;;;;;;;11.55;1.95;;;13.40;99.90;;;;;;5091916;28;20520;-77
2022/06/20 01:40:31;;;;;;;7.60;1.75;;;13.40;99.90;;;;;;5093566;28;20039;-77
2022/06/20 01:42:57;;;;;;;7.25;2.00;;;13.30;99.90;;;;;;5076963;28;20491;-77
2022/06/20 01:48:15;;;;;;;5.88;1.70;;;13.20;99.90;;;;;;5091990;28;20044;-77
2022/06/20 01:50:44;;;;;;;7.45;1.70;;;13.20;99.90;;;;;;5091614;28;20035;-77
2022/06/20 01:53:12;;;;;;;10.50;2.00;;;13.10;99.90;;;;;;5076771;28;20039;-77
2022/06/20 01:55:41;;;;;;;8.02;2.00;;;13.10;99.90;;;;;;5076360;28;20027;-77
2022/06/20 01:58:38;;;;;;;8.73;1.77;;;13.10;99.90;;;;;;5092154;28;20115;-76
2022/06/20 02:01:05;;;;;;;9.60;2.03;;;13.10;99.90;;;;;;5091153;28;20043;-77
2022/06/20 02:03:34;;;;;;;6.75;2.05;;;13.10;99.90;;;;;;5076517;28;20035;-78
2022/06/20 02:06:01;;;;;;;11.95;2.03;;;13.00;99.90;;;;;;5093052;28;20066;-77
2022/06/20 02:08:27;;;;;;;8.05;1.83;;;12.90;99.90;;;;;;5093029;28;20039;-76
2022/06/20 02:11:17;;;;;;;6.72;1.88;;;12.90;99.90;;;;;;5093739;28;20092;-78
2022/06/20 02:13:46;;;;;;;5.45;1.73;;;12.90;99.90;;;;;;5093087;28;20123;-78
2022/06/20 02:16:16;;;;;;;4.43;1.70;;;12.90;99.90;;;;;;5092987;28;20023;-77
2022/06/20 02:18:44;;;;;;;8.38;2.20;;;12.90;99.90;;;;;;5093153;28;20114;-77
2022/06/20 02:21:18;;;;;;;9.35;1.83;;;12.90;99.90;;;;;;5091114;28;20043;-78
2022/06/20 02:23:48;;;;;;;7.18;1.67;;;13.00;99.90;;;;;;5092870;28;20122;-77
2022/06/20 02:26:15;;;;;;;5.35;1.90;;;13.00;99.90;;;;;;5092980;28;20051;-77
2022/06/20 02:28:54;;;;;;;6.03;1.65;;;13.10;99.90;;;;;;5093028;28;20047;-78
2022/06/20 02:31:21;;;;;;;5.15;1.60;;;13.10;99.90;;;;;;5093006;28;20044;-77
2022/06/20 02:33:47;;;;;;;11.05;1.80;;;13.10;99.90;;;;;;5093355;28;20122;-78
2022/06/20 02:36:14;;;;;;;4.43;1.67;;;13.10;99.90;;;;;;5092886;28;20127;-78
2022/06/20 02:38:39;;;;;;;8.23;1.65;;;13.10;99.90;;;;;;5093029;28;20082;-77
2022/06/20 02:41:06;;;;;;;4.30;1.60;;;13.00;99.90;;;;;;5092804;28;20067;-78
2022/06/20 02:43:51;;;;;;;5.03;1.65;;;13.00;99.90;;;;;;5076454;28;20324;-77
2022/06/20 02:46:20;;;;;;;3.78;1.65;;;13.00;99.90;;;;;;5092840;28;20072;-77
2022/06/20 02:48:49;;;;;;;4.95;1.30;;;13.00;99.90;;;;;;5093197;28;20088;-77
2022/06/20 02:51:20;;;;;;;8.57;2.15;;;12.90;99.90;;;;;;5095820;28;20037;-76
2022/06/20 02:54:01;;;;;;;6.25;1.55;;;12.90;99.90;;;;;;5093304;28;20388;-77
2022/06/20 02:56:30;;;;;;;6.63;1.88;;;12.90;99.90;;;;;;5091265;28;20411;-77
2022/06/20 02:59:06;;;;;;;6.20;1.80;;;12.90;99.90;;;;;;5076602;28;20039;-78
2022/06/20 03:01:50;;;;;;;9.82;1.90;;;12.80;99.90;;;;;;5091531;28;20118;-77
2022/06/20 03:04:16;;;;;;;6.50;1.50;;;12.80;99.90;;;;;;5093121;28;20039;-77
2022/06/20 03:06:49;;;;;;;7.63;1.80;;;12.80;99.90;;;;;;5090670;28;20035;-78
2022/06/20 03:09:19;;;;;;;6.75;1.63;;;12.80;99.90;;;;;;5092955;28;20057;-78
2022/06/20 03:11:45;;;;;;;6.47;1.90;;;12.80;99.90;;;;;;5128798;27;20127;-76
2022/06/20 03:14:15;;;;;;;7.18;1.83;;;12.80;99.90;;;;;;5096205;28;20032;-77
2022/06/20 03:16:40;;;;;;;6.15;1.60;;;12.80;99.90;;;;;;5096691;28;20031;-78
2022/06/20 03:19:20;;;;;;;8.18;2.10;;;12.70;99.90;;;;;;5062924;28;20039;-78
2022/06/20 03:21:47;;;;;;;5.30;1.70;;;12.70;99.90;;;;;;5093769;28;20047;-78
2022/06/20 03:24:19;;;;;;;6.20;1.77;;;12.70;99.90;;;;;;5096362;28;20067;-77
2022/06/20 03:26:45;;;;;;;5.53;1.95;;;12.70;99.90;;;;;;5095047;28;20048;-77
2022/06/20 03:29:14;;;;;;;7.18;2.03;;;12.70;99.90;;;;;;5079042;28;20055;-77
2022/06/20 03:31:40;;;;;;;8.05;1.80;;;12.60;99.90;;;;;;5096419;28;20114;-77
2022/06/20 03:34:07;;;;;;;8.68;2.05;;;12.60;99.90;;;;;;5095949;28;20114;-76
2022/06/20 03:36:34;;;;;;;5.65;1.92;;;12.60;99.90;;;;;;5062714;28;20039;-77
2022/06/20 03:39:01;;;;;;;4.90;1.65;;;12.50;99.90;;;;;;5096173;28;20457;-78
2022/06/20 03:41:26;;;;;;;;;;;12.50;99.90;;;;;;5096700;28;20191;-77
2022/06/20 03:44:05;;;;;;;5.95;2.03;;;12.40;99.90;;;;;;5095927;28;19915;-77
2022/06/20 03:47:03;;;;;;;8.32;2.15;;;12.40;99.90;;;;;;5095392;28;20510;-78
2022/06/20 03:49:29;;;;;;;7.00;1.90;;;12.40;99.90;;;;;;5074099;28;20047;-78
2022/06/20 03:52:20;;;;;;;8.80;2.10;;;12.30;99.90;;;;;;5095648;28;20518;-77
2022/06/20 03:55:10;;;;;;;6.18;2.00;;;12.30;99.90;;;;;;5095255;28;20063;-77
2022/06/20 03:58:02;;;;;;;7.85;2.45;;;12.30;99.90;;;;;;5077259;28;20093;-80
2022/06/20 04:00:38;;;;;;;7.60;2.20;;;12.20;99.90;;;;;;5095136;28;20036;-77
2022/06/20 04:03:31;;;;;;;10.48;2.55;;;12.20;99.90;;;;;;5095519;28;20035;-77
2022/06/20 04:06:27;;;;;;;11.55;2.38;;;12.20;99.90;;;;;;5094381;28;20108;-77
2022/06/20 04:12:21;;;;;;;8.48;2.60;;;12.10;99.90;;;;;;5095066;28;20074;-79
2022/06/20 04:15:00;;;;;;;7.95;2.30;;;12.10;99.90;;;;;;5094372;28;20036;-78
2022/06/20 04:20:27;;;;;;;5.75;2.58;;;12.10;99.90;;;;;;5096659;28;20040;-78
2022/06/20 04:22:55;;;;;;;6.82;2.53;;;12.10;99.90;;;;;;5097438;28;20036;-77
2022/06/20 04:25:31;;;;;;;8.38;2.42;;;12.10;99.90;;;;;;5078485;28;20043;-78
2022/06/20 04:28:24;;;;;;;10.50;3.20;;;12.10;99.90;;;;;;5098785;28;20093;-80
2022/06/20 04:31:16;;;;;;;10.32;3.00;;;12.10;99.90;;;;;;5085771;28;20588;-80
2022/06/20 04:33:51;;;;;;;7.38;2.25;;;12.10;99.90;;;;;;5102336;28;20403;-80
2022/06/20 04:36:39;;;;;;;7.47;2.72;;;12.10;99.90;;;;;;5099656;28;20046;-80
2022/06/20 04:39:19;;;;;;;6.72;2.83;;;12.20;99.90;;;;;;5098319;28;20038;-78
2022/06/20 04:41:53;;;;;;;8.93;2.60;;;12.20;99.90;;;;;;5083445;28;20043;-80
2022/06/20 04:44:54;;;;;;;7.18;2.60;;;12.30;99.90;;;;;;5079087;28;20039;-78
2022/06/20 04:47:49;;;;;;;6.43;2.70;;;12.40;99.90;;;;;;5096804;28;20039;-80
2022/06/20 04:50:19;;;;;;;9.68;2.75;;;12.50;99.90;;;;;;5081540;28;20074;-78
2022/06/20 04:52:47;;;;;;;11.75;3.15;;;12.50;99.90;;;;;;5097278;28;20036;-78
2022/06/20 04:55:16;;;;;;;7.50;2.45;;;12.60;99.90;;;;;;5090987;28;20059;-78
2022/06/20 04:57:42;;;;;;;13.68;3.22;;;12.60;99.90;;;;;;5099479;28;20047;-79
2022/06/20 05:00:17;;;;;;;9.13;3.13;;;12.60;99.90;;;;;;5095709;28;20039;-79
2022/06/20 05:02:43;;;;;;;8.55;2.70;;;12.60;99.90;;;;;;5095819;28;20067;-79
2022/06/20 05:05:16;;;;;;;6.43;2.75;;;12.60;99.90;;;;;;5095892;28;20109;-77
2022/06/20 05:07:41;;;;;;;6.05;2.90;;;12.70;99.90;;;;;;5095740;28;20067;-78
2022/06/20 05:10:16;;;;;;;5.35;2.60;;;12.70;99.90;;;;;;5078912;28;20133;-78
2022/06/20 05:13:01;;;;;;;7.70;2.65;;;12.80;99.90;;;;;;5095755;28;20039;-79
2022/06/20 05:15:35;;;;;;;8.25;3.35;;;12.90;99.90;;;;;;5095607;28;20036;-79
2022/06/20 05:18:16;;;;;;;8.40;2.60;;;13.00;99.90;;;;;;5090789;28;20065;-78
2022/06/20 05:20:43;;;;;;;6.68;2.95;;;13.00;99.90;;;;;;5095574;28;20046;-78
2022/06/20 05:23:23;;;;;;;9.13;3.38;;;13.20;99.90;;;;;;5099024;28;20486;-79
2022/06/20 05:25:50;;;;;;;7.85;3.13;;;13.30;99.90;;;;;;5095382;28;20055;-78
2022/06/20 05:28:19;;;;;;;12.55;3.92;;;13.40;99.90;;;;;;5082856;28;20495;-77
2022/06/20 05:30:46;;;;;;;9.57;3.08;;;13.50;99.90;;;;;;5078470;28;20059;-80
2022/06/20 05:33:14;;;;;;;9.63;3.30;;;13.70;99.90;;;;;;5095377;28;20497;-80
2022/06/20 05:35:48;;;;;;;8.80;3.13;;;13.90;99.90;;;;;;5078500;28;20028;-79
2022/06/20 05:38:44;;;;;;;11.65;3.30;;;14.10;99.90;;;;;;5095842;28;20423;-78
2022/06/20 05:41:14;;;;;;;10.85;3.35;;;14.30;99.90;;;;;;5076987;28;20380;-79
2022/06/20 05:43:40;;;;;;;8.13;3.10;;;14.40;99.90;;;;;;5078504;28;20031;-78
2022/06/20 05:46:12;;;;;;;10.23;3.22;;;14.60;99.90;;;;;;5065493;28;20044;-78
2022/06/20 05:48:43;;;;;;;8.85;3.17;;;14.70;99.90;;;;;;5079211;28;20096;-79
2022/06/20 05:51:14;;;;;;;12.02;3.90;;;14.90;99.90;;;;;;5094537;28;20031;-79
2022/06/20 05:54:05;;;;;;;8.50;3.10;;;15.10;99.90;;;;;;5095116;28;20032;-78
2022/06/20 05:56:41;;;;;;;10.52;2.80;;;15.10;99.90;;;;;;5080630;28;20092;-78
2022/06/20 05:59:28;;;;;;;7.00;2.83;;;15.30;99.90;;;;;;5095227;28;20057;-78
2022/06/20 06:02:03;;;;;;;9.18;2.63;;;15.40;99.90;;;;;;5107283;28;20158;-79
2022/06/20 06:04:41;;;;;;;9.05;2.53;;;15.50;99.90;;;;;;5077915;28;20415;-78
2022/06/20 06:07:16;;;;;;;9.73;2.58;;;15.80;99.90;;;;;;5095439;28;20031;-77
2022/06/20 06:09:58;;;;;;;7.03;2.60;;;16.20;99.90;;;;;;5094863;28;20407;-78
2022/06/20 06:12:43;;;;;;;10.45;3.13;;;16.60;99.90;;;;;;5090487;28;20043;-79
2022/06/20 06:15:27;;;;;;;7.80;2.70;;;17.00;99.90;;;;;;5074957;28;20042;-79
2022/06/20 06:18:00;;;;;;;12.07;2.60;;;17.40;99.90;;;;;;5103139;28;20051;-79
2022/06/20 06:20:30;;;;;;;6.15;2.60;;;17.70;99.90;;;;;;5102859;28;20040;-79
2022/06/20 06:22:59;;;;;;;7.47;2.95;;;17.80;99.90;;;;;;5094231;28;20040;-78
2022/06/20 06:25:34;;;;;;;9.38;2.50;;;18.10;99.90;;;;;;5078110;28;20044;-79
2022/06/20 06:28:18;;;;;;;11.70;2.70;;;18.30;99.90;;;;;;5094983;28;20101;-80
2022/06/20 06:30:59;;;;;;;10.95;2.50;;;18.30;99.90;;;;;;5133526;28;20046;-79
2022/06/20 06:33:49;;;;;;;9.82;2.05;;;17.80;99.90;;;;;;5087181;28;20031;-79
2022/06/20 06:36:40;;;;;;;7.03;1.90;;;17.50;99.90;;;;;;5087573;28;20039;-79
2022/06/20 06:39:28;;;;;;;11.52;2.40;;;17.20;99.90;;;;;;5094947;28;20039;-78
2022/06/20 06:42:02;;;;;;;10.13;2.38;;;17.00;99.90;;;;;;5065158;28;20047;-78
2022/06/20 06:44:40;;;;;;;8.88;2.17;;;16.90;99.90;;;;;;5079862;28;20172;-79
2022/06/20 06:47:31;;;;;;;9.40;2.30;;;17.50;99.90;;;;;;5086774;28;20044;-79
2022/06/20 06:50:03;;;;;;;8.02;2.33;;;17.80;99.90;;;;;;5103498;28;20075;-79
2022/06/20 06:52:44;;;;;;;11.75;2.53;;;18.10;99.90;;;;;;5135957;27;20387;-79
2022/06/20 06:55:24;;;;;;;6.90;2.10;;;18.70;99.90;;;;;;5103405;28;20559;-76
2022/06/20 06:58:13;;;;;;;8.95;2.45;;;18.90;99.90;;;;;;5110814;28;20113;-79
2022/06/20 07:00:50;;;;;;;5.32;2.00;;;18.60;99.90;;;;;;5099953;28;20452;-79
2022/06/20 07:03:22;;;;;;;9.65;1.90;;;18.50;99.90;;;;;;5094887;28;20040;-79
2022/06/20 07:05:54;;;;;;;6.07;1.90;;;18.50;99.90;;;;;;5103501;28;20503;-77
2022/06/20 07:08:26;;;;;;;9.02;2.17;;;18.40;99.90;;;;;;5101694;28;20047;-78
2022/06/20 07:11:06;;;;;;;11.57;2.13;;;18.50;99.90;;;;;;5089979;28;20036;-77
2022/06/20 07:13:35;;;;;;;8.75;2.10;;;18.80;99.90;;;;;;5105380;28;20024;-79
2022/06/20 07:16:03;;;;;;;7.20;1.80;;;19.10;99.90;;;;;;5102878;28;20395;-79
2022/06/20 07:18:42;;;;;;;7.68;2.28;;;19.20;99.90;;;;;;5103508;28;20118;-78
2022/06/20 07:21:11;;;;;;;5.10;1.73;;;19.40;99.90;;;;;;5101675;28;20046;-78
2022/06/20 07:23:37;;;;;;;6.03;1.40;;;19.60;99.90;;;;;;5104081;28;20111;-77
2022/06/20 07:26:03;;;;;;;;;;;19.40;99.90;;;;;;5103416;28;20445;-78
2022/06/20 07:28:47;;;;;;;6.50;1.50;;;19.20;99.90;;;;;;5100942;28;19919;-79
2022/06/20 07:31:39;;;;;;;6.63;1.60;;;19.20;99.90;;;;;;5100024;28;20040;-78
2022/06/20 07:34:08;;;;;;;7.05;1.67;;;19.20;99.90;;;;;;5095152;28;20536;-79
2022/06/20 07:36:42;;;;;;;4.85;1.50;;;19.60;99.90;;;;;;5097304;28;20092;-78
2022/06/20 07:39:12;;;;;;;6.13;1.38;;;19.70;99.90;;;;;;5100805;28;20445;-79
2022/06/20 07:41:43;;;;;;;4.68;1.27;;;20.20;99.90;;;;;;5104381;28;20039;-79
2022/06/20 07:44:25;;;;;;;3.83;1.10;;;20.40;99.90;;;;;;5095602;28;20079;-77
2022/06/20 07:47:01;;;;;;;7.93;1.52;;;20.20;99.90;;;;;;5131109;27;20502;-80
2022/06/20 07:49:38;;;;;;;5.20;1.27;;;19.80;99.90;;;;;;5079877;28;20047;-80
2022/06/20 07:52:11;;;;;;;5.55;1.20;;;19.40;99.90;;;;;;5079952;28;20035;-79
2022/06/20 07:54:42;;;;;;;7.18;1.58;;;19.00;99.90;;;;;;5097484;28;20057;-79
2022/06/20 07:57:14;;;;;;;3.20;0.80;;;19.20;99.90;;;;;;5096868;28;20463;-79
2022/06/20 07:59:52;;;;;;;12.98;0.93;;;19.50;99.90;;;;;;5101390;28;20046;-79
2022/06/20 08:02:46;;;;;;;4.05;0.73;;;19.70;99.90;;;;;;5101986;28;20039;-79
2022/06/20 08:05:17;;;;;;;3.55;1.00;;;20.00;99.90;;;;;;5054579;28;20079;-78
2022/06/20 08:08:11;;;;;;;3.80;0.90;;;20.30;99.90;;;;;;5101553;28;20554;-78
2022/06/20 08:10:42;;;;;;;3.03;0.82;;;20.60;99.90;;;;;;5091124;28;20035;-77
2022/06/20 08:13:19;;;;;;;2.95;1.00;;;20.80;99.90;;;;;;5101726;28;20510;-79
2022/06/20 08:15:53;;;;;;;3.38;1.00;;;21.00;99.90;;;;;;5100967;28;20069;-79
2022/06/20 08:18:20;;;;;;;3.13;0.70;;;21.30;99.90;;;;;;5098340;28;20099;-79
2022/06/20 08:20:53;;;;;;;2.88;0.90;;;21.50;99.90;;;;;;5079706;28;20039;-78
2022/06/20 08:23:30;;;;;;;4.07;0.80;;;21.70;99.90;;;;;;5094205;28;20176;-77
2022/06/20 08:26:01;;;;;;;3.42;0.70;;;21.90;99.90;;;;;;5110786;28;20075;-78
2022/06/20 08:28:50;;;;;;;2.85;1.02;;;21.50;99.30;;;;;;5099008;28;20047;-78
2022/06/20 08:31:30;;;;;;;4.55;0.93;;;21.10;99.90;;;;;;5066203;28;20043;-78
2022/06/20 08:34:20;;;;;;;4.20;1.13;;;21.00;99.90;;;;;;5095811;28;20035;-78
2022/06/20 08:37:15;;;;;;;3.60;1.00;;;21.00;99.90;;;;;;5079529;28;20051;-79
2022/06/20 08:39:50;;;;;;;2.60;0.73;;;20.80;99.90;;;;;;5077791;28;20487;-79
2022/06/20 08:42:19;;;;;;;2.88;1.13;;;20.40;99.90;;;;;;5094446;28;20119;-79
2022/06/20 08:45:22;;;;;;;6.95;1.10;;;20.00;99.90;;;;;;5096340;28;20552;-79
2022/06/20 08:48:25;;;;;;;5.70;1.20;;;19.60;99.90;;;;;;5076875;28;20035;-77
2022/06/20 08:51:26;;;;;;;5.88;1.23;;;19.50;99.90;;;;;;5095947;28;20035;-78
2022/06/20 08:54:23;;;;;;;5.10;1.40;;;19.50;99.90;;;;;;5041332;28;20047;-78
2022/06/20 08:57:05;;;;;;;7.05;1.42;;;19.50;99.90;;;;;;5127750;27;20118;-78
2022/06/20 08:59:42;;;;;;;5.95;1.20;;;19.40;99.90;;;;;;5094153;28;20055;-78
2022/06/20 09:02:20;;;;;;;4.65;1.50;;;19.60;99.90;;;;;;5086669;28;20039;-78
2022/06/20 09:05:13;;;;;;;3.88;1.00;;;19.70;99.90;;;;;;5094022;28;20431;-78
2022/06/20 09:07:42;;;;;;;5.90;1.00;;;19.20;99.90;;;;;;5090647;28;20495;-78
2022/06/20 09:10:14;;;;;;;3.97;1.27;;;19.50;99.90;;;;;;5078709;28;20036;-78
2022/06/20 09:13:10;;;;;;;5.68;1.00;;;20.20;99.90;;;;;;5093720;28;20483;-78
2022/06/20 09:15:55;;;;;;;3.28;0.95;;;20.60;99.90;;;;;;5095312;28;20039;-78
2022/06/20 09:18:32;;;;;;;4.50;0.93;;;20.80;99.90;;;;;;5095594;28;20122;-78
2022/06/20 09:21:10;;;;;;;3.53;0.63;;;21.30;99.90;;;;;;5112796;28;20031;-78
2022/06/20 09:23:39;;;;;;;4.65;1.10;;;21.30;98.40;;;;;;5094428;28;20054;-78
2022/06/20 09:26:46;;;;;;;4.20;0.80;;;20.80;99.00;;;;;;5085614;28;20047;-78
2022/06/20 09:29:38;;;;;;;3.10;0.88;;;20.60;99.20;;;;;;5095177;28;20039;-78
2022/06/20 09:32:38;;;;;;;2.42;0.90;;;20.40;99.40;;;;;;5086656;28;20110;-79
2022/06/20 09:35:44;;;;;;;4.60;0.90;;;20.30;99.50;;;;;;5088068;28;20031;-78
2022/06/20 09:38:26;;;;;;;4.05;1.02;;;20.50;99.80;;;;;;5091925;28;20055;-78
2022/06/20 09:41:19;;;;;;;4.93;0.90;;;20.60;98.50;;;;;;5095250;28;20039;-78
2022/06/20 09:44:38;;;;;;;5.00;1.20;;;20.40;99.50;;;;;;5094994;28;20411;-78
2022/06/20 09:47:20;;;;;;;3.22;1.25;;;20.10;99.90;;;;;;5033706;28;20037;-77
2022/06/20 09:50:12;;;;;;;6.65;1.48;;;19.80;99.90;;;;;;5094257;28;20063;-78
2022/06/20 09:52:58;;;;;;;2.40;0.80;;;19.60;99.90;;;;;;5090272;28;20492;-77
2022/06/20 09:55:32;;;;;;;3.28;1.25;;;19.80;99.90;;;;;;5093561;28;20067;-77
2022/06/20 09:58:22;;;;;;;5.30;0.85;;;20.20;99.90;;;;;;5095121;28;20043;-78
2022/06/20 10:00:55;;;;;;;3.08;0.80;;;20.40;99.90;;;;;;5129014;27;20499;-79
2022/06/20 10:03:55;;;;;;;5.20;1.00;;;20.20;99.90;;;;;;5095180;28;20036;-78
2022/06/20 10:06:45;;;;;;;2.72;1.00;;;20.20;99.90;;;;;;5094669;28;20032;-78
2022/06/20 10:09:14;;;;;;;3.40;0.93;;;20.10;99.90;;;;;;5072120;28;20122;-78
2022/06/20 10:11:45;;;;;;;3.40;0.80;;;20.60;99.90;;;;;;5085098;28;20390;-79
2022/06/20 10:14:39;;;;;;;3.70;0.90;;;21.10;99.20;;;;;;5094538;28;20032;-78
2022/06/20 10:17:29;;;;;;;3.45;0.80;;;21.60;98.80;;;;;;5093794;28;20074;-78
2022/06/20 10:20:22;;;;;;;4.07;1.13;;;21.90;99.20;;;;;;5075094;28;20036;-78
2022/06/20 10:22:57;;;;;;;3.50;0.93;;;22.00;98.90;;;;;;5096848;28;20071;-77
2022/06/20 10:25:44;;;;;;;3.97;0.73;;;22.00;97.90;;;;;;5081748;28;20088;-77
2022/06/20 10:28:34;;;;;;;5.25;1.00;;;22.00;98.10;;;;;;5097727;28;20482;-79
2022/06/20 10:31:03;;;;;;;3.08;0.80;;;22.30;99.10;;;;;;5096701;28;20147;-78
2022/06/20 10:34:01;;;;;;;3.38;0.85;;;22.20;98.30;;;;;;5100620;28;20078;-78
2022/06/20 10:36:50;;;;;;;4.65;0.90;;;22.00;98.20;;;;;;5095813;28;20049;-78
2022/06/20 10:39:57;;;;;;;7.65;0.90;;;22.20;97.90;;;;;;5095276;28;20164;-78
2022/06/20 10:42:23;;;;;;;4.75;0.98;;;22.40;97.30;;;;;;4981181;28;20033;-77
2022/06/20 10:44:55;;;;;;;;;;;22.70;97.40;;;;;;5030523;28;20092;-78
2022/06/20 10:47:35;;;;;;;5.65;0.90;;;23.00;96.60;;;;;;5080034;27;19922;-78
2022/06/20 10:50:40;;;;;;;3.72;0.82;;;23.10;97.80;;;;;;5094072;28;20040;-79
2022/06/20 10:53:11;;;;;;;2.97;0.65;;;23.20;95.50;;;;;;5062560;28;20047;-78
2022/06/20 10:56:06;;;;;;;3.45;0.70;;;22.80;96.10;;;;;;5080696;28;20039;-78
2022/06/20 10:58:37;;;;;;;5.47;0.90;;;22.80;97.00;;;;;;5096896;28;20073;-78
2022/06/20 11:01:13;;;;;;;3.42;0.90;;;23.00;97.00;;;;;;5097979;28;20092;-78
2022/06/20 11:04:30;;;;;;;5.30;0.90;;;23.00;96.30;;;;;;5080620;28;20040;-79
2022/06/20 11:07:41;;;;;;;3.30;1.00;;;22.90;96.30;;;;;;5062658;28;20047;-76
2022/06/20 11:10:31;;;;;;;4.30;0.93;;;22.70;96.30;;;;;;5092816;28;20058;-78
2022/06/20 11:13:24;;;;;;;3.88;0.90;;;22.70;97.10;;;;;;5095068;28;20039;-78
2022/06/20 11:16:02;;;;;;;3.20;0.90;;;22.80;97.00;;;;;;5130943;27;20090;-78
2022/06/20 11:18:56;;;;;;;6.60;1.20;;;22.80;96.90;;;;;;5097804;28;20069;-79
2022/06/20 11:22:04;;;;;;;5.45;1.20;;;23.20;97.10;;;;;;5082819;28;20447;-77
2022/06/20 11:24:37;;;;;;;;;;;23.40;96.20;;;;;;5063780;28;20127;-78
2022/06/20 11:27:16;;;;;;;4.65;0.90;;;23.50;96.00;;;;;;5087173;28;19942;-79
2022/06/20 11:30:12;;;;;;;5.53;0.90;;;23.70;96.20;;;;;;5093754;28;20044;-78
2022/06/20 11:32:47;;;;;;;2.50;1.20;;;24.00;96.60;;;;;;5094786;28;20399;-78
2022/06/20 11:35:43;;;;;;;2.33;0.90;;;23.30;95.70;;;;;;5089256;28;20520;-78
2022/06/20 11:38:35;;;;;;;6.22;1.20;;;23.00;97.10;;;;;;5080440;28;20052;-78
2022/06/20 11:41:00;;;;;;;3.05;0.98;;;23.20;96.60;;;;;;5082619;28;20071;-78
2022/06/20 11:43:45;;;;;;;;;;;23.30;96.40;;;;;;5076471;28;20032;-77
2022/06/20 11:46:44;;;;;;;2.65;0.85;;;23.20;95.90;;;;;;5091567;28;19922;-77
2022/06/20 11:49:42;;;;;;;4.40;1.17;;;23.70;96.60;;;;;;5091576;28;20040;-76
2022/06/20 11:52:29;;;;;;;4.70;1.00;;;23.80;96.40;;;;;;5092563;28;20040;-77
2022/06/20 11:55:04;;;;;;;2.30;0.80;;;23.10;96.00;;;;;;5094625;28;20063;-78
2022/06/20 11:57:39;;;;;;;3.67;1.10;;;22.90;96.60;;;;;;5090472;28;20036;-78
2022/06/20 12:00:19;;;;;;;3.78;1.10;;;22.70;97.40;;;;;;5091069;28;20094;-77
2022/06/20 12:03:16;;;;;;;2.90;1.10;;;22.50;97.30;;;;;;5093547;28;20130;-79
2022/06/20 12:05:56;;;;;;;6.38;1.48;;;22.20;98.10;;;;;;5091825;28;20373;-78
2022/06/20 12:08:38;;;;;;;3.13;1.08;;;22.30;98.50;;;;;;5089817;28;20485;-78
2022/06/20 12:11:33;;;;;;;3.78;1.00;;;22.50;97.40;;;;;;5093177;28;20070;-78
2022/06/20 12:14:22;;;;;;;3.35;0.90;;;22.80;97.00;;;;;;5076240;28;20043;-77
2022/06/20 12:16:51;;;;;;;4.25;0.95;;;23.40;97.70;;;;;;5092767;28;20082;-78
2022/06/20 12:25:37;;;;;;;3.92;1.10;;;24.20;96.10;;;;;;5076773;28;20047;-78
2022/06/20 12:28:18;;;;;;;3.70;0.80;;;23.90;95.90;;;;;;5091950;28;20108;-79
2022/06/20 12:30:46;;;;;;;2.63;0.73;;;23.70;95.90;;;;;;5087822;28;20531;-78
2022/06/20 12:33:13;;;;;;;4.72;0.82;;;23.80;96.00;;;;;;5092772;28;20032;-78
2022/06/20 12:35:48;;;;;;;2.72;0.90;;;23.80;96.10;;;;;;5092183;28;20028;-79
2022/06/20 12:38:46;;;;;;;5.40;0.77;;;23.90;96.90;;;;;;5092258;28;20040;-77
2022/06/20 12:41:19;;;;;;;5.70;0.80;;;23.50;95.70;;;;;;5075238;28;20084;-78
2022/06/20 12:44:12;;;;;;;3.17;0.88;;;23.00;96.20;;;;;;5074847;28;20040;-79
2022/06/20 12:46:46;;;;;;;4.20;0.90;;;22.50;97.40;;;;;;5089273;28;20044;-78
2022/06/20 12:49:41;;;;;;;4.63;1.13;;;22.40;97.30;;;;;;5093583;28;20047;-78
2022/06/20 12:52:26;;;;;;;3.03;1.00;;;22.30;97.10;;;;;;5092383;28;20072;-77
2022/06/20 12:54:58;;;;;;;4.65;1.00;;;21.80;97.30;;;;;;5094949;28;20047;-79
2022/06/20 12:57:52;;;;;;;3.25;1.02;;;21.80;97.80;;;;;;5093148;28;20029;-77
2022/06/20 13:00:48;;;;;;;3.65;0.75;;;21.80;97.40;;;;;;5084505;28;20054;-78
2022/06/20 13:03:38;;;;;;;3.20;1.05;;;22.00;97.50;;;;;;5089513;28;20125;-78
2022/06/20 13:06:14;;;;;;;4.35;0.98;;;22.50;98.30;;;;;;5092134;28;20036;-78
2022/06/20 13:08:57;;;;;;;4.25;0.90;;;22.80;97.00;;;;;;5092492;28;20686;-78
2022/06/20 13:11:38;;;;;;;3.95;0.93;;;23.10;97.80;;;;;;5088501;28;20040;-78
2022/06/20 13:14:35;;;;;;;6.35;0.88;;;23.00;97.50;;;;;;5097592;28;20032;-78
2022/06/20 13:17:19;;;;;;;1.85;0.73;;;22.70;96.30;;;;;;5094334;28;20036;-77
2022/06/20 13:20:20;;;;;;;2.47;0.90;;;22.90;96.60;;;;;;5098335;28;20051;-78
2022/06/20 13:23:01;;;;;;;3.33;0.90;;;23.00;96.60;;;;;;5071795;28;20092;-76
2022/06/20 13:25:36;;;;;;;3.47;0.90;;;23.40;97.50;;;;;;5097482;28;20067;-77
2022/06/20 13:28:19;;;;;;;6.93;1.20;;;23.30;96.60;;;;;;5101683;28;20051;-78
2022/06/20 13:30:51;;;;;;;4.78;1.23;;;23.20;96.40;;;;;;5097364;28;20035;-79
2022/06/20 13:33:28;;;;;;;4.88;1.30;;;22.80;96.60;;;;;;5096602;28;20056;-76
2022/06/20 13:36:14;;;;;;;2.53;0.88;;;22.60;97.30;;;;;;5097623;28;20066;-78
2022/06/20 13:38:57;;;;;;;2.20;0.65;;;22.90;96.90;;;;;;5076786;28;20043;-78
2022/06/20 13:41:50;;;;;;;5.25;0.95;;;22.90;96.30;;;;;;5096705;28;20044;-77
2022/06/20 13:44:28;;;;;;;4.43;1.00;;;22.90;97.00;;;;;;5089622;28;20055;-78
2022/06/20 13:47:14;;;;;;;5.35;1.02;;;22.40;96.90;;;;;;5076093;28;20123;-78
2022/06/20 13:49:49;;;;;;;3.10;1.10;;;22.20;97.50;;;;;;5092498;28;20044;-79
2022/06/20 13:52:48;;;;;;;4.28;1.08;;;22.40;97.20;;;;;;5092395;28;20121;-77
2022/06/20 13:55:35;;;;;;;6.50;0.82;;;22.80;97.90;;;;;;5036168;28;20045;-78
2022/06/20 13:58:22;;;;;;;3.85;0.73;;;22.90;96.10;;;;;;5099491;28;20044;-77
2022/06/20 14:01:10;;;;;;;3.50;0.70;;;22.90;96.60;;;;;;5093587;28;20044;-78
2022/06/20 14:03:54;;;;;;;2.20;1.00;;;23.00;97.40;;;;;;5074223;28;20036;-77